Latest Weather Observations for Dennes Point

IDT60901

Issued at 3:35 am EST Friday 1 August 2014 (issued every 10 minutes, with the page automatically refreshed every 10 minutes)

About weather observations | Map of Hobart area stations | Latest observations for Hobart area | Other Formats
Station Details ID: 094255 Name: DENNES POINT Lat: -43.06 Lon: 147.36 Height: 5.67 m
Data from the previous 72 hours. | See also: Recent months at Dennes Point
Date/Time
EST
Tmp

°C
App
Tmp
°C
Dew
Point
°C
Rel
Hum
%
Delta-T

°C
Wind Press
QNH
hPa
Press
MSL
hPa
Rain
since
9 am
mm
Dir
 
Spd
km/h
Gust
km/h
Spd
kts
Gust
kts
01/03:30am 5.9 -3.9 2.4 78 1.4 W 43 65 23 35 987.3 - 19.4
01/03:16am 7.0 -0.2 0.9 65 2.4 WNW 28 56 15 30 987.0 - 19.2
01/03:00am 7.2 1.6 0.9 64 2.5 NW 20 30 11 16 986.7 986.7 19.2
01/02:30am 6.5 2.2 0.8 67 2.2 NW 13 22 7 12 986.3 - 19.2
01/02:00am 6.3 2.8 1.2 70 2.1 NW 9 17 5 9 986.5 986.5 19.2
01/01:30am 6.2 0.9 1.9 74 1.7 NW 19 32 10 17 985.8 - 19.2
01/01:00am 6.1 -1.7 2.0 75 1.7 NW 32 54 17 29 985.6 985.6 19.2
01/12:53am 6.1 -1.2 2.2 76 1.6 NW 30 54 16 29 985.4 - 19.2
01/12:30am 6.4 0.1 1.7 72 1.9 WNW 24 41 13 22 985.2 - 19.2
01/12:00am 6.9 -1.1 1.4 68 2.2 WNW 33 48 18 26 984.8 984.8 19.2
 
Date/Time
EST
Tmp

°C
App
Tmp
°C
Dew
Point
°C
Rel
Hum
%
Delta-T

°C
Wind Press
QNH
hPa
Press
MSL
hPa
Rain
since
9 am
mm
Dir
 
Spd
km/h
Gust
km/h
Spd
kts
Gust
kts
31/11:53pm 7.0 -1.0 1.7 69 2.1 WNW 33 48 18 26 984.7 - 19.2
31/11:30pm 6.6 0.4 2.1 73 1.8 NW 24 30 13 16 983.7 - 19.2
31/11:20pm 6.7 -0.3 1.8 71 2.0 NNW 28 35 15 19 983.8 - 19.2
31/11:00pm 6.2 -2.7 2.8 79 1.4 WNW 39 69 21 37 984.1 984.1 19.0
31/10:50pm 6.8 -1.9 2.1 72 1.9 WNW 37 67 20 36 984.2 - 18.8
31/10:30pm 6.7 -0.3 1.8 71 2.0 W 28 48 15 26 983.2 - 18.8
31/10:11pm 6.6 1.3 1.7 71 2.0 WNW 19 26 10 14 982.9 - 18.8
31/10:01pm 6.9 -2.2 1.6 69 2.1 NW 39 59 21 32 982.4 - 18.8
31/10:00pm 7.0 -2.4 2.1 71 2.0 NW 41 59 22 32 982.4 982.4 18.8
31/09:30pm 6.1 -3.3 2.6 78 1.5 NW 41 65 22 35 983.2 - 18.8
31/09:00pm 6.8 -1.0 2.9 76 1.7 WNW 33 61 18 33 983.1 983.1 18.2
31/08:52pm 7.0 -2.0 2.5 73 1.9 NW 39 61 21 33 983.3 - 17.8
31/08:30pm 7.3 0.7 2.2 70 2.1 NW 26 41 14 22 981.7 - 17.2
31/08:00pm 7.9 0.1 1.5 64 2.7 NW 32 52 17 28 981.1 981.1 17.2
31/07:30pm 7.7 2.1 3.2 73 1.9 NNW 22 39 12 21 981.2 - 17.2
31/07:00pm 6.8 -0.5 2.7 75 1.7 NW 30 43 16 23 981.0 981.0 17.2
31/06:49pm 6.8 -1.8 2.5 74 1.8 NW 37 72 20 39 980.8 - 17.2
31/06:48pm 6.8 -0.9 3.2 78 1.5 NW 33 48 18 26 981.0 - 17.2
31/06:39pm 6.3 -2.9 3.3 81 1.3 W 41 61 22 33 981.9 - 17.0
31/06:30pm 7.0 -1.8 3.6 79 1.4 WNW 39 56 21 30 981.6 - 16.4
31/06:24pm 7.8 -2.0 3.1 72 2.0 WNW 44 56 24 30 981.3 - 15.6
31/06:00pm 7.8 3.4 4.6 80 1.4 N 17 20 9 11 980.6 980.6 15.4
31/05:30pm 8.3 3.3 4.5 77 1.7 N 20 28 11 15 980.7 - 15.4
31/05:00pm 8.6 1.2 5.2 79 1.5 N 33 43 18 23 979.8 979.8 15.4
31/04:30pm 8.0 2.0 5.5 84 1.1 N 26 35 14 19 980.4 - 15.4
31/04:00pm 7.2 2.2 4.7 84 1.1 N 20 26 11 14 980.9 980.9 15.4
31/03:30pm 6.5 3.5 4.0 84 1.1 N 9 13 5 7 980.3 - 15.4
31/03:00pm 6.7 4.1 4.4 85 1.0 N 7 11 4 6 981.3 981.3 15.4
31/02:30pm 5.8 2.7 3.5 85 1.0 WNW 9 11 5 6 982.9 - 15.4
31/02:00pm 5.5 3.3 3.5 87 0.8 SE 4 9 2 5 981.3 981.3 15.4
31/01:30pm 5.9 3.0 4.7 92 0.5 SSW 9 13 5 7 982.9 - 13.8
31/01:00pm 6.2 3.3 4.8 91 0.6 S 9 13 5 7 982.3 982.3 12.0
31/12:30pm 6.4 4.0 5.4 93 0.4 S 7 11 4 6 983.0 - 10.4
31/12:00pm 6.7 4.6 5.8 94 0.4 S 6 7 3 4 983.6 983.6 8.8
31/11:30am 7.2 5.2 6.1 93 0.5 S 6 7 3 4 984.2 - 6.4
31/11:00am 7.4 6.1 6.2 92 0.6 S 2 6 1 3 984.9 984.9 5.8
31/10:30am 7.2 5.5 6.0 92 0.5 W 4 6 2 3 985.7 - 4.6
31/10:00am 7.5 4.8 5.8 89 0.8 NNW 9 11 5 6 986.6 986.6 2.8
31/09:30am 8.3 4.0 6.8 90 0.7 N 19 20 10 11 986.7 - 0.4
31/09:00am 8.3 5.9 6.9 91 0.7 N 9 11 5 6 986.5 986.5 19.0
31/08:30am 8.2 5.6 6.2 87 0.9 NNW 9 13 5 7 987.9 - 18.6
31/08:00am 8.3 6.0 5.8 84 1.1 NW 7 9 4 5 988.6 988.6 18.4
31/07:30am 8.6 6.6 6.2 85 1.1 N 6 11 3 6 988.4 - 18.2
31/07:00am 8.1 4.4 6.1 87 0.9 N 15 20 8 11 988.9 988.9 18.2
31/06:30am 7.9 5.5 5.4 84 1.1 NNW 7 9 4 5 989.1 - 17.8
31/06:00am 7.7 4.7 5.8 88 0.9 W 11 15 6 8 989.8 989.8 17.8
31/05:30am 7.7 3.5 5.8 88 0.9 W 17 19 9 10 989.8 - 17.6
31/05:00am 7.5 4.1 6.1 91 0.6 SW 13 19 7 10 989.8 989.8 16.2
31/04:30am 7.9 3.3 6.5 91 0.6 SSW 20 30 11 16 989.1 - 14.2
31/04:00am 9.1 5.8 7.9 92 0.6 S 15 24 8 13 989.2 989.2 12.2
31/03:30am 9.7 7.5 7.8 88 0.9 S 9 13 5 7 988.3 - 11.4
31/03:00am 9.5 8.7 8.3 92 0.6 S 2 6 1 3 988.6 988.6 11.2
31/02:30am 10.3 8.4 9.2 93 0.5 W 9 13 5 7 989.4 - 11.2
31/02:00am 10.8 7.7 8.9 88 1.0 WSW 15 20 8 11 988.8 988.8 9.6
31/01:30am 11.5 8.6 8.2 80 1.6 W 13 15 7 8 987.7 - 7.6
31/01:00am 12.1 7.8 7.8 75 2.1 W 20 28 11 15 987.8 987.8 7.0
31/12:30am 12.7 7.4 7.0 68 2.7 NW 24 35 13 19 987.4 - 6.8
31/12:10am 13.0 6.0 6.8 66 3.0 NW 33 56 18 30 988.1 - 6.8
31/12:00am 13.3 6.8 6.6 64 3.3 NW 30 44 16 24 988.1 988.1 6.8
 
Date/Time
EST
Tmp

°C
App
Tmp
°C
Dew
Point
°C
Rel
Hum
%
Delta-T

°C
Wind Press
QNH
hPa
Press
MSL
hPa
Rain
since
9 am
mm
Dir
 
Spd
km/h
Gust
km/h
Spd
kts
Gust
kts
30/11:30pm 13.0 6.6 6.8 66 3.0 NW 30 43 16 23 988.6 - 6.6
30/11:00pm 13.0 7.1 5.9 62 3.4 NW 26 39 14 21 988.6 988.6 6.6
30/10:43pm 13.0 6.8 6.1 63 3.3 WNW 28 46 15 25 988.7 - 6.6
30/10:30pm 13.2 7.4 6.1 62 3.4 WNW 26 48 14 26 988.9 - 6.6
30/10:00pm 12.7 6.6 6.7 67 2.9 WNW 28 50 15 27 989.2 989.2 6.6
30/09:57pm 13.0 6.9 6.8 66 3.0 WNW 28 50 15 27 989.0 - 6.6
30/09:30pm 12.2 7.4 7.5 73 2.3 WNW 22 37 12 20 989.7 - 6.6
30/09:00pm 12.3 7.2 7.6 73 2.3 WNW 24 37 13 20 990.1 990.1 5.8
30/08:30pm 12.0 7.0 8.1 77 1.9 WNW 24 39 13 21 990.7 - 5.6
30/08:00pm 12.3 7.7 6.6 68 2.7 NW 20 30 11 16 990.7 990.7 4.4
30/07:30pm 12.1 7.8 6.8 70 2.5 NW 19 28 10 15 990.9 - 4.4
30/07:00pm 12.1 5.4 7.2 72 2.4 WNW 32 43 17 23 991.8 991.8 4.4
30/06:30pm 12.7 5.8 6.5 66 3.0 WNW 32 52 17 28 991.7 - 4.2
30/06:28pm 12.7 6.6 6.7 67 2.9 WNW 28 52 15 28 991.7 - 4.2
30/06:00pm 12.1 7.5 8.0 76 2.0 NW 22 35 12 19 992.2 992.2 4.2
30/05:45pm 11.8 5.2 7.9 77 1.9 WNW 32 43 17 23 992.4 - 4.2
30/05:30pm 10.2 7.1 8.8 91 0.7 ESE 15 19 8 10 992.7 - 3.8
30/05:00pm 10.6 9.0 8.2 85 1.2 S 6 13 3 7 992.3 992.3 3.2
30/04:30pm 11.9 10.0 7.6 75 2.1 NW 7 17 4 9 992.3 - 3.2
30/04:00pm 10.8 9.6 7.9 82 1.4 WSW 4 7 2 4 992.4 992.4 3.2
30/03:30pm 11.0 9.8 8.1 82 1.4 SSW 4 9 2 5 992.4 - 2.6
30/03:00pm 10.6 9.0 8.0 84 1.3 SSW 6 7 3 4 992.5 992.5 2.2
30/02:30pm 11.4 7.6 7.5 77 1.9 NNW 17 28 9 15 993.1 - 2.0
30/02:00pm 11.1 7.3 7.6 79 1.7 NW 17 37 9 20 993.3 993.3 1.6
30/01:30pm 11.4 7.0 7.3 76 2.0 WNW 20 28 11 15 993.9 - 1.4
30/01:00pm 11.8 8.1 8.1 78 1.8 W 17 22 9 12 993.8 993.8 0.6
30/12:30pm 12.3 5.5 7.8 74 2.2 W 33 41 18 22 993.4 - 0.2
30/12:00pm 13.0 6.9 6.8 66 3.0 WNW 28 41 15 22 993.4 993.4 0.0
30/11:39am 13.1 6.2 6.5 64 3.2 WNW 32 50 17 27 992.9 - 0.0
30/11:30am 13.0 4.8 6.6 65 3.1 WNW 39 56 21 30 993.1 - 0.0
30/11:00am 12.3 4.8 6.4 67 2.8 WNW 35 61 19 33 993.5 993.5 0.0
30/10:30am 12.7 3.4 6.1 64 3.1 W 44 67 24 36 993.8 - 0.0
30/10:00am 12.2 3.7 5.1 62 3.3 WNW 39 67 21 36 994.1 994.1 0.0
30/09:34am 12.1 4.8 4.6 60 3.4 WNW 32 54 17 29 994.2 - 0.0
30/09:30am 12.1 4.7 4.8 61 3.3 WNW 33 46 18 25 994.2 - 0.0
30/09:00am 11.5 4.1 4.0 60 3.4 WNW 32 52 17 28 994.0 994.0 9.6
30/08:31am 10.5 3.4 3.3 61 3.1 WNW 30 50 16 27 994.5 - 9.6
30/08:30am 10.4 2.9 3.4 62 3.1 WNW 32 50 17 27 994.6 - 9.6
30/08:19am 10.2 3.5 3.9 65 2.8 W 28 63 15 34 995.0 - 9.6
30/08:00am 10.1 5.8 3.2 62 3.0 NW 15 22 8 12 994.6 994.7 9.6
30/07:30am 10.4 2.5 2.0 56 3.5 WNW 33 52 18 28 995.3 - 9.6
30/07:07am 10.4 2.3 1.2 53 3.8 WNW 33 52 18 28 994.4 - 9.6
30/07:00am 10.5 3.0 1.1 52 3.9 WNW 30 46 16 25 994.3 994.3 9.6
30/06:30am 10.4 2.3 0.7 51 4.0 WNW 33 54 18 29 995.0 - 9.6
30/06:00am 10.1 2.9 1.0 53 3.8 W 28 48 15 26 995.6 995.7 9.6
30/05:30am 10.2 3.0 0.5 51 3.9 WNW 28 41 15 22 995.4 - 9.6
30/05:04am 10.4 0.2 1.0 52 3.9 W 44 63 24 34 995.2 - 9.6
30/05:00am 10.2 0.0 1.1 53 3.8 W 44 61 24 33 995.2 995.3 9.6
30/04:53am 10.4 1.2 1.2 53 3.8 W 39 59 21 32 995.1 - 9.6
30/04:30am 10.3 1.0 0.6 51 4.0 W 39 48 21 26 995.1 - 9.6
30/04:00am 10.3 -0.2 1.7 55 3.6 W 46 65 25 35 994.7 994.8 9.6
30/03:30am 10.3 -2.1 1.4 54 3.7 W 56 78 30 42 993.8 - 9.6
30/03:00am 9.9 -2.1 1.8 57 3.4 W 54 89 29 48 993.1 993.1 9.6
30/02:30am 9.1 -3.3 2.4 63 2.8 W 57 85 31 46 992.2 - 9.6
30/02:26am 8.7 -3.1 2.7 66 2.5 W 54 74 29 40 992.3 - 9.6
30/02:21am 8.3 -2.6 3.4 71 2.1 W 50 59 27 32 992.4 - 9.6
30/02:07am 7.9 -7.0 4.3 78 1.6 W 72 93 39 50 992.2 - 9.6
30/02:00am 8.0 -7.4 3.7 74 1.9 W 74 91 40 49 991.5 991.5 9.4
30/01:59am 8.2 -7.2 3.7 73 1.9 W 74 91 40 49 991.5 - 9.4
30/01:32am 8.2 -3.5 3.5 72 2.0 W 54 74 29 40 991.5 - 9.4
30/01:30am 8.4 -3.2 3.7 72 2.0 W 54 70 29 38 991.5 - 9.4
30/01:13am 8.8 -1.9 2.8 66 2.5 W 48 72 26 39 991.2 - 9.2
30/01:00am 8.4 -1.6 4.2 75 1.9 W 46 57 25 31 990.9 990.9 9.2
30/12:45am 8.5 -0.1 4.7 77 1.7 WSW 39 59 21 32 991.3 - 9.0
30/12:30am 9.3 0.4 2.9 64 2.7 W 39 50 21 27 990.2 - 8.8
30/12:00am 8.0 -1.7 3.8 75 1.8 W 44 65 24 35 989.7 989.7 8.8
 
Date/Time
EST
Tmp

°C
App
Tmp
°C
Dew
Point
°C
Rel
Hum
%
Delta-T

°C
Wind Press
QNH
hPa
Press
MSL
hPa
Rain
since
9 am
mm
Dir
 
Spd
km/h
Gust
km/h
Spd
kts
Gust
kts
29/11:30pm 9.6 -2.7 1.8 58 3.3 W 56 83 30 45 989.0 - 8.6
29/11:18pm 9.0 -4.2 2.1 62 2.9 W 61 80 33 43 988.6 - 8.6
29/11:09pm 8.9 -2.6 4.3 73 2.0 W 54 63 29 34 989.3 - 8.6
29/11:04pm 9.7 -5.7 4.1 68 2.5 W 74 96 40 52 989.6 - 8.0
29/11:02pm 10.4 -0.8 3.9 64 2.9 W 52 96 28 52 988.9 - 8.0
29/11:00pm 10.6 0.0 3.2 60 3.3 W 48 70 26 38 988.4 988.4 8.0
29/10:30pm 11.4 0.6 1.9 52 4.0 W 48 80 26 43 987.6 - 7.8
29/10:00pm 11.1 -1.2 2.9 57 3.6 WNW 57 78 31 42 987.5 987.5 7.8
29/09:47pm 11.2 -1.8 3.3 58 3.5 W 61 82 33 44 987.5 - 7.8
29/09:41pm 11.2 -2.6 3.3 58 3.5 W 65 78 35 42 987.3 - 7.8
29/09:30pm 11.4 1.6 3.2 57 3.6 WNW 44 83 24 45 987.2 - 7.8
29/09:22pm 11.8 2.1 2.8 54 3.9 WNW 43 83 23 45 987.0 - 7.8
29/09:00pm 10.7 1.6 4.2 64 2.9 W 41 63 22 34 986.5 986.5 7.8
29/08:54pm 10.7 1.1 3.3 60 3.2 WNW 43 63 23 34 986.4 - 7.8
29/08:43pm 10.1 2.2 4.3 67 2.6 WNW 35 48 19 26 986.7 - 7.8
29/08:30pm 9.8 -2.2 4.6 70 2.3 W 57 78 31 42 986.6 - 7.8
29/08:21pm 9.2 -1.8 5.0 75 1.9 W 52 72 28 39 986.6 - 7.6
29/08:14pm 9.1 -2.1 5.8 80 1.5 W 54 63 29 34 987.4 - 7.6
29/08:07pm 9.4 -5.6 4.2 70 2.3 W 72 106 39 57 986.6 - 7.4
29/08:04pm 10.2 1.2 4.6 68 2.5 W 41 72 22 39 986.8 - 7.2
29/08:00pm 10.4 1.5 5.0 69 2.5 W 41 52 22 28 986.5 986.5 7.2
29/07:55pm 10.0 0.4 4.6 69 2.4 W 44 52 24 28 986.0 - 7.2
29/07:51pm 10.4 3.9 4.8 68 2.5 WNW 28 46 15 25 986.2 - 7.2
29/07:30pm 11.0 5.3 4.9 66 2.8 WNW 24 35 13 19 985.9 - 7.0
29/07:00pm 10.9 3.4 4.6 65 2.9 WNW 33 67 18 36 985.3 985.3 6.8
29/06:59pm 10.8 3.9 4.5 65 2.8 WNW 30 65 16 35 985.4 - 6.8
29/06:30pm 10.1 4.6 5.7 74 2.0 NW 24 37 13 20 985.0 - 6.8
29/06:25pm 10.0 4.1 5.6 74 2.0 WNW 26 41 14 22 985.1 - 6.8
29/06:01pm 9.3 -1.1 6.0 80 1.5 W 50 69 27 37 985.1 - 6.8
29/06:00pm 9.3 -1.5 6.0 80 1.5 W 52 69 28 37 985.2 985.2 6.8
29/05:59pm 9.2 -1.6 5.9 80 1.5 W 52 69 28 37 985.2 - 6.8
29/05:37pm 10.0 -1.4 6.9 81 1.5 WSW 56 85 30 46 985.4 - 5.6
29/05:33pm 10.5 4.3 7.7 83 1.3 SW 30 61 16 33 985.0 - 5.2
29/05:30pm 11.1 6.6 8.5 84 1.3 SW 22 32 12 17 984.7 - 5.2
29/05:00pm 10.5 6.5 8.9 90 0.8 NNW 20 33 11 18 984.3 984.3 5.0
29/04:30pm 10.7 5.4 8.5 86 1.1 NNW 26 37 14 20 984.2 - 3.6
29/04:00pm 11.1 6.9 8.1 82 1.5 NNW 20 30 11 16 984.3 984.3 3.6
29/03:30pm 11.5 6.3 7.2 75 2.1 NNW 24 32 13 17 984.9 - 3.0
29/03:00pm 11.7 6.6 6.0 68 2.7 WNW 22 35 12 19 985.6 985.6 2.8
29/02:30pm 11.5 6.9 6.4 71 2.4 WNW 20 39 11 21 986.2 - 2.8
29/02:00pm 12.2 7.6 5.4 63 3.2 W 19 39 10 21 986.4 986.4 2.8
29/01:30pm 11.6 7.9 4.6 62 3.2 W 13 24 7 13 986.9 - 2.8
29/01:00pm 11.3 6.5 4.7 64 3.0 WNW 19 32 10 17 988.2 988.2 2.8
29/12:30pm 10.5 4.9 5.3 70 2.4 WNW 24 43 13 23 989.0 - 2.8
29/12:00pm 9.7 -0.7 5.9 77 1.8 WNW 50 69 27 37 989.8 989.8 2.8
29/11:47am 9.9 3.0 6.3 78 1.7 WNW 32 56 17 30 989.4 - 2.2
29/11:30am 10.4 4.2 6.2 75 2.0 W 28 44 15 24 989.7 - 2.0
29/11:00am 11.4 2.1 5.9 69 2.6 W 44 56 24 30 989.4 989.4 1.8
29/10:30am 13.0 3.4 4.4 56 3.9 WNW 44 67 24 36 988.7 - 1.8
29/10:17am 12.7 5.5 4.9 59 3.6 WNW 32 78 17 42 988.9 - 1.8
29/10:15am 12.6 6.3 5.5 62 3.3 WNW 28 54 15 29 988.9 - 1.8
29/10:00am 12.1 5.5 6.2 67 2.8 WNW 30 44 16 24 989.2 989.2 1.8
29/09:40am 11.6 4.9 7.5 76 2.0 NW 32 50 17 27 989.6 - 1.8
29/09:38am 11.5 5.6 7.6 77 1.9 NNW 28 39 15 21 989.6 - 1.8
29/09:30am 11.3 3.7 7.6 78 1.8 WNW 37 57 20 31 989.7 - 1.8
29/09:26am 11.2 3.2 7.5 78 1.8 WNW 39 57 21 31 989.9 - 1.6
29/09:22am 11.1 2.8 7.6 79 1.7 W 41 50 22 27 990.0 - 1.6
29/09:04am 12.3 6.4 7.6 73 2.3 NW 28 50 15 27 990.3 - 0.2
29/09:00am 12.1 7.1 8.0 76 2.0 NW 24 50 13 27 990.2 990.2 3.2
29/08:30am 10.9 5.2 8.5 85 1.2 N 28 39 15 21 989.3 - 2.6
29/08:00am 11.0 5.7 8.4 84 1.3 N 26 35 14 19 989.9 989.9 2.6
29/07:30am 10.9 5.2 8.5 85 1.2 NNW 28 35 15 19 990.5 - 2.0
29/07:00am 11.4 4.7 8.1 80 1.6 NNW 33 50 18 27 990.8 990.8 1.4
29/06:40am 13.2 6.2 6.8 65 3.1 NNW 33 56 18 30 991.2 - 0.0
29/06:30am 12.8 5.7 6.6 66 3.0 N 33 44 18 24 990.2 - 0.0
29/06:00am 12.8 6.3 6.4 65 3.1 N 30 44 16 24 990.2 990.2 0.0
29/05:30am 12.8 7.4 6.4 65 3.0 N 24 39 13 21 991.4 - 0.0
29/05:00am 12.9 5.8 6.5 65 3.1 N 33 46 18 25 992.1 992.1 0.0
29/04:30am 12.6 7.2 6.4 66 2.9 N 24 39 13 21 992.8 - 0.0
29/04:00am 12.6 6.5 6.6 67 2.9 N 28 33 15 18 993.6 993.6 0.0
29/03:49am 13.1 7.0 6.5 64 3.2 N 28 48 15 26 993.9 - 0.0

Latest Capital City Observations: Canberra | Sydney | Melbourne | Brisbane | Adelaide | Perth | Hobart | Darwin

Other Formats:

Comma delimited format used in spreadsheet applications
http://www.bom.gov.au/fwo/IDT60901/IDT60901.94988.axf

JavaScript Object Notation format (JSON) in row-major order
http://www.bom.gov.au/fwo/IDT60901/IDT60901.94988.json